sensor_id;sensor_type;location;lat;lon;timestamp;temperature;humidity
15977;DHT22;8091;51.914;12.786;2022-09-30T10:33:56;19.40;99.90
15977;DHT22;8091;51.914;12.786;2022-09-30T10:36:21;20.00;99.90
15977;DHT22;8091;51.914;12.786;2022-09-30T10:39:00;20.00;99.90
15977;DHT22;8091;51.914;12.786;2022-09-30T10:41:28;20.40;99.90
15977;DHT22;8091;51.914;12.786;2022-09-30T10:46:30;21.10;99.90
15977;DHT22;8091;51.914;12.786;2022-09-30T10:48:57;21.60;99.90
15977;DHT22;8091;51.914;12.786;2022-09-30T10:51:27;22.00;99.90
15977;DHT22;8091;51.914;12.786;2022-09-30T10:53:54;22.10;99.90
15977;DHT22;8091;51.914;12.786;2022-09-30T10:56:39;22.00;99.90
15977;DHT22;8091;51.914;12.786;2022-09-30T10:59:30;22.00;99.90
15977;DHT22;8091;51.914;12.786;2022-09-30T11:02:02;22.60;99.90
15977;DHT22;8091;51.914;12.786;2022-09-30T11:04:36;23.00;99.90
15977;DHT22;8091;51.914;12.786;2022-09-30T11:07:26;23.40;86.50
15977;DHT22;8091;51.914;12.786;2022-09-30T11:10:03;24.30;77.30
15977;DHT22;8091;51.914;12.786;2022-09-30T11:12:44;24.20;70.30
15977;DHT22;8091;51.914;12.786;2022-09-30T11:15:43;24.00;65.30
15977;DHT22;8091;51.914;12.786;2022-09-30T11:18:18;23.70;59.80
15977;DHT22;8091;51.914;12.786;2022-09-30T11:20:59;24.10;56.00
15977;DHT22;8091;51.914;12.786;2022-09-30T11:23:37;24.60;52.70
15977;DHT22;8091;51.914;12.786;2022-09-30T11:35:08;23.30;43.10
15977;DHT22;8091;51.914;12.786;2022-09-30T11:40:41;23.60;40.80
15977;DHT22;8091;51.914;12.786;2022-09-30T11:46:43;24.70;38.80
15977;DHT22;8091;51.914;12.786;2022-09-30T11:51:58;25.30;29.60
15977;DHT22;8091;51.914;12.786;2022-09-30T11:57:42;25.10;27.90
15977;DHT22;8091;51.914;12.786;2022-09-30T12:00:19;24.90;28.80
15977;DHT22;8091;51.914;12.786;2022-09-30T12:02:51;24.10;29.20
15977;DHT22;8091;51.914;12.786;2022-09-30T12:05:43;23.90;30.20
15977;DHT22;8091;51.914;12.786;2022-09-30T12:08:41;24.50;28.30
15977;DHT22;8091;51.914;12.786;2022-09-30T12:11:13;24.40;28.10
15977;DHT22;8091;51.914;12.786;2022-09-30T12:13:43;24.80;26.20
15977;DHT22;8091;51.914;12.786;2022-09-30T12:16:18;25.10;24.70
15977;DHT22;8091;51.914;12.786;2022-09-30T12:18:52;25.80;23.30
15977;DHT22;8091;51.914;12.786;2022-09-30T12:21:21;26.10;20.10
15977;DHT22;8091;51.914;12.786;2022-09-30T12:23:58;26.30;20.20
15977;DHT22;8091;51.914;12.786;2022-09-30T12:26:25;26.10;19.70
15977;DHT22;8091;51.914;12.786;2022-09-30T12:28:59;26.30;17.10
15977;DHT22;8091;51.914;12.786;2022-09-30T12:35:13;27.00;12.00
15977;DHT22;8091;51.914;12.786;2022-09-30T12:45:54;26.90;2.70
15977;DHT22;8091;51.914;12.786;2022-09-30T12:48:38;26.70;1.90
15977;DHT22;8091;51.914;12.786;2022-09-30T12:51:05;26.50;2.50
15977;DHT22;8091;51.914;12.786;2022-09-30T12:53:37;26.20;1.50
15977;DHT22;8091;51.914;12.786;2022-09-30T12:56:12;25.30;1.30
15977;DHT22;8091;51.914;12.786;2022-09-30T12:58:46;25.70;2.20
15977;DHT22;8091;51.914;12.786;2022-09-30T13:01:30;26.10;1.00
15977;DHT22;8091;51.914;12.786;2022-09-30T13:12:22;24.50;2.40
15977;DHT22;8091;51.914;12.786;2022-09-30T13:15:25;24.60;1.40
15977;DHT22;8091;51.914;12.786;2022-09-30T13:31:26;27.40;1.00
15977;DHT22;8091;51.914;12.786;2022-09-30T13:36:31;25.90;1.00
15977;DHT22;8091;51.914;12.786;2022-09-30T13:41:59;24.90;1.00
15977;DHT22;8091;51.914;12.786;2022-09-30T13:47:42;23.40;1.00
15977;DHT22;8091;51.914;12.786;2022-09-30T13:52:45;22.10;1.00
15977;DHT22;8091;51.914;12.786;2022-09-30T13:55:38;21.90;1.00
15977;DHT22;8091;51.914;12.786;2022-09-30T14:00:57;22.50;1.00
15977;DHT22;8091;51.914;12.786;2022-09-30T14:06:24;23.20;1.00
15977;DHT22;8091;51.914;12.786;2022-09-30T14:22:13;22.70;1.00
15977;DHT22;8091;51.914;12.786;2022-09-30T14:24:40;21.60;1.50
15977;DHT22;8091;51.914;12.786;2022-09-30T14:29:41;20.80;5.10
15977;DHT22;8091;51.914;12.786;2022-09-30T14:32:26;20.30;5.90
15977;DHT22;8091;51.914;12.786;2022-09-30T14:34:53;20.10;8.10
15977;DHT22;8091;51.914;12.786;2022-09-30T14:37:28;19.70;11.30
15977;DHT22;8091;51.914;12.786;2022-09-30T14:39:54;19.60;13.20
15977;DHT22;8091;51.914;12.786;2022-09-30T14:42:31;19.50;15.10
15977;DHT22;8091;51.914;12.786;2022-09-30T14:44:59;19.40;15.70
